sensor_id;sensor_type;location;lat;lon;timestamp;temperature;humidity
1405;DHT22;697;51.114;6.542;2024-03-08T00:01:45;7.80;74.60
1405;DHT22;697;51.114;6.542;2024-03-08T00:04:13;7.70;74.90
1405;DHT22;697;51.114;6.542;2024-03-08T00:06:41;7.60;75.20
1405;DHT22;697;51.114;6.542;2024-03-08T00:09:11;7.60;75.30
1405;DHT22;697;51.114;6.542;2024-03-08T00:11:38;7.60;75.30
1405;DHT22;697;51.114;6.542;2024-03-08T00:14:05;7.50;75.00
1405;DHT22;697;51.114;6.542;2024-03-08T00:16:33;7.60;75.30
1405;DHT22;697;51.114;6.542;2024-03-08T00:19:00;7.50;75.20
1405;DHT22;697;51.114;6.542;2024-03-08T00:21:29;7.60;75.20
1405;DHT22;697;51.114;6.542;2024-03-08T00:23:56;7.50;75.60
1405;DHT22;697;51.114;6.542;2024-03-08T00:26:23;7.50;75.20
1405;DHT22;697;51.114;6.542;2024-03-08T00:28:50;7.50;76.00
1405;DHT22;697;51.114;6.542;2024-03-08T00:31:17;7.60;75.40
1405;DHT22;697;51.114;6.542;2024-03-08T00:33:44;7.50;75.20
1405;DHT22;697;51.114;6.542;2024-03-08T00:36:10;7.50;75.60
1405;DHT22;697;51.114;6.542;2024-03-08T00:38:38;7.50;75.80
1405;DHT22;697;51.114;6.542;2024-03-08T00:41:05;7.50;75.60
1405;DHT22;697;51.114;6.542;2024-03-08T00:43:33;7.50;75.30
1405;DHT22;697;51.114;6.542;2024-03-08T00:45:59;7.40;76.30
1405;DHT22;697;51.114;6.542;2024-03-08T00:48:26;7.20;76.90
1405;DHT22;697;51.114;6.542;2024-03-08T00:50:53;7.30;76.80
1405;DHT22;697;51.114;6.542;2024-03-08T00:53:20;7.30;76.70
1405;DHT22;697;51.114;6.542;2024-03-08T00:55:48;7.20;76.70
1405;DHT22;697;51.114;6.542;2024-03-08T00:58:15;7.20;76.70
1405;DHT22;697;51.114;6.542;2024-03-08T01:00:42;7.20;76.50
1405;DHT22;697;51.114;6.542;2024-03-08T01:03:10;7.20;76.60
1405;DHT22;697;51.114;6.542;2024-03-08T01:05:36;7.20;76.80
1405;DHT22;697;51.114;6.542;2024-03-08T01:08:04;7.20;76.60
1405;DHT22;697;51.114;6.542;2024-03-08T01:10:31;7.10;77.20
1405;DHT22;697;51.114;6.542;2024-03-08T01:12:59;7.10;77.40
1405;DHT22;697;51.114;6.542;2024-03-08T01:15:26;7.00;77.80
1405;DHT22;697;51.114;6.542;2024-03-08T01:17:53;7.00;77.80
1405;DHT22;697;51.114;6.542;2024-03-08T01:20:19;7.00;77.80
1405;DHT22;697;51.114;6.542;2024-03-08T01:22:46;7.00;77.30
1405;DHT22;697;51.114;6.542;2024-03-08T01:25:13;7.10;77.30
1405;DHT22;697;51.114;6.542;2024-03-08T01:27:40;7.10;77.20
1405;DHT22;697;51.114;6.542;2024-03-08T01:30:09;7.20;77.10
1405;DHT22;697;51.114;6.542;2024-03-08T01:32:36;7.10;77.60
1405;DHT22;697;51.114;6.542;2024-03-08T01:35:04;6.90;78.30
1405;DHT22;697;51.114;6.542;2024-03-08T01:37:31;7.00;78.30
1405;DHT22;697;51.114;6.542;2024-03-08T01:39:58;7.00;78.20
1405;DHT22;697;51.114;6.542;2024-03-08T01:42:25;6.90;78.20
1405;DHT22;697;51.114;6.542;2024-03-08T01:44:51;6.70;79.60
1405;DHT22;697;51.114;6.542;2024-03-08T01:47:20;6.70;80.20
1405;DHT22;697;51.114;6.542;2024-03-08T01:49:48;6.70;79.60
1405;DHT22;697;51.114;6.542;2024-03-08T01:52:15;6.80;78.90
1405;DHT22;697;51.114;6.542;2024-03-08T01:54:44;6.90;79.00
1405;DHT22;697;51.114;6.542;2024-03-08T01:57:11;6.90;78.90
1405;DHT22;697;51.114;6.542;2024-03-08T01:59:39;6.80;78.90
1405;DHT22;697;51.114;6.542;2024-03-08T02:02:08;6.70;79.50
1405;DHT22;697;51.114;6.542;2024-03-08T02:04:37;6.80;79.90
1405;DHT22;697;51.114;6.542;2024-03-08T02:07:04;6.80;79.80
1405;DHT22;697;51.114;6.542;2024-03-08T02:09:31;6.80;80.00
1405;DHT22;697;51.114;6.542;2024-03-08T02:11:58;6.80;79.70
1405;DHT22;697;51.114;6.542;2024-03-08T02:14:25;6.70;79.80
1405;DHT22;697;51.114;6.542;2024-03-08T02:16:51;6.80;79.70
1405;DHT22;697;51.114;6.542;2024-03-08T02:19:19;6.80;79.80
1405;DHT22;697;51.114;6.542;2024-03-08T02:21:47;6.60;80.60
1405;DHT22;697;51.114;6.542;2024-03-08T02:24:14;6.70;80.70
1405;DHT22;697;51.114;6.542;2024-03-08T02:26:41;6.70;80.40
1405;DHT22;697;51.114;6.542;2024-03-08T02:29:09;6.70;80.40
1405;DHT22;697;51.114;6.542;2024-03-08T02:31:35;6.60;80.50
1405;DHT22;697;51.114;6.542;2024-03-08T02:34:05;6.60;80.60
1405;DHT22;697;51.114;6.542;2024-03-08T02:36:31;6.60;80.30
1405;DHT22;697;51.114;6.542;2024-03-08T02:39:01;6.40;81.30
1405;DHT22;697;51.114;6.542;2024-03-08T02:41:28;6.50;81.30
1405;DHT22;697;51.114;6.542;2024-03-08T02:43:55;6.50;80.90
1405;DHT22;697;51.114;6.542;2024-03-08T02:46:22;6.40;81.30
1405;DHT22;697;51.114;6.542;2024-03-08T02:48:49;6.40;81.50
1405;DHT22;697;51.114;6.542;2024-03-08T02:51:16;6.40;81.40
1405;DHT22;697;51.114;6.542;2024-03-08T02:53:43;6.40;81.20
1405;DHT22;697;51.114;6.542;2024-03-08T02:56:11;6.40;81.30
1405;DHT22;697;51.114;6.542;2024-03-08T02:58:42;6.40;81.20
1405;DHT22;697;51.114;6.542;2024-03-08T03:01:08;6.40;81.40
1405;DHT22;697;51.114;6.542;2024-03-08T03:03:36;6.50;81.30
1405;DHT22;697;51.114;6.542;2024-03-08T03:06:03;6.50;80.70
1405;DHT22;697;51.114;6.542;2024-03-08T03:08:30;6.50;80.30
1405;DHT22;697;51.114;6.542;2024-03-08T03:10:56;6.50;80.80
1405;DHT22;697;51.114;6.542;2024-03-08T03:13:24;6.50;80.80
1405;DHT22;697;51.114;6.542;2024-03-08T03:15:51;6.50;80.80
1405;DHT22;697;51.114;6.542;2024-03-08T03:18:18;6.50;80.60
1405;DHT22;697;51.114;6.542;2024-03-08T03:20:47;6.50;80.40
1405;DHT22;697;51.114;6.542;2024-03-08T03:23:14;6.60;80.60
1405;DHT22;697;51.114;6.542;2024-03-08T03:25:45;6.50;80.60
1405;DHT22;697;51.114;6.542;2024-03-08T03:28:12;6.60;80.70
1405;DHT22;697;51.114;6.542;2024-03-08T03:30:44;6.50;80.70
1405;DHT22;697;51.114;6.542;2024-03-08T03:33:12;6.50;80.40
1405;DHT22;697;51.114;6.542;2024-03-08T03:35:40;6.50;80.10
1405;DHT22;697;51.114;6.542;2024-03-08T03:38:08;6.50;80.30
1405;DHT22;697;51.114;6.542;2024-03-08T03:40:35;6.50;80.50
1405;DHT22;697;51.114;6.542;2024-03-08T03:43:03;6.30;81.20
1405;DHT22;697;51.114;6.542;2024-03-08T03:45:30;6.10;82.40
1405;DHT22;697;51.114;6.542;2024-03-08T03:48:02;6.10;83.10
1405;DHT22;697;51.114;6.542;2024-03-08T03:50:29;6.10;83.00
1405;DHT22;697;51.114;6.542;2024-03-08T03:52:55;6.10;83.00
1405;DHT22;697;51.114;6.542;2024-03-08T03:55:22;6.00;83.00
1405;DHT22;697;51.114;6.542;2024-03-08T03:57:49;6.00;82.90
1405;DHT22;697;51.114;6.542;2024-03-08T04:00:16;6.00;83.10
1405;DHT22;697;51.114;6.542;2024-03-08T04:02:43;6.10;83.20
1405;DHT22;697;51.114;6.542;2024-03-08T04:05:11;6.00;83.10
1405;DHT22;697;51.114;6.542;2024-03-08T04:07:39;6.00;83.90
1405;DHT22;697;51.114;6.542;2024-03-08T04:10:09;6.10;83.60
1405;DHT22;697;51.114;6.542;2024-03-08T04:12:37;6.10;83.20
1405;DHT22;697;51.114;6.542;2024-03-08T04:15:04;6.00;83.20
1405;DHT22;697;51.114;6.542;2024-03-08T04:17:32;5.90;84.00
1405;DHT22;697;51.114;6.542;2024-03-08T04:20:01;5.90;83.80
1405;DHT22;697;51.114;6.542;2024-03-08T04:22:34;5.90;83.60
1405;DHT22;697;51.114;6.542;2024-03-08T04:25:01;5.90;83.60
1405;DHT22;697;51.114;6.542;2024-03-08T04:27:28;6.00;83.40
1405;DHT22;697;51.114;6.542;2024-03-08T04:29:55;6.10;83.20
1405;DHT22;697;51.114;6.542;2024-03-08T04:32:22;6.10;82.90
1405;DHT22;697;51.114;6.542;2024-03-08T04:34:49;6.10;82.80
1405;DHT22;697;51.114;6.542;2024-03-08T04:37:16;6.10;83.00
1405;DHT22;697;51.114;6.542;2024-03-08T04:39:45;6.10;82.80
1405;DHT22;697;51.114;6.542;2024-03-08T04:42:12;6.10;83.30
1405;DHT22;697;51.114;6.542;2024-03-08T04:44:39;6.10;82.60
1405;DHT22;697;51.114;6.542;2024-03-08T04:47:06;6.10;82.90
1405;DHT22;697;51.114;6.542;2024-03-08T04:49:33;6.10;83.00
1405;DHT22;697;51.114;6.542;2024-03-08T04:52:01;6.00;83.00
1405;DHT22;697;51.114;6.542;2024-03-08T04:54:29;6.10;83.20
1405;DHT22;697;51.114;6.542;2024-03-08T04:56:57;6.10;83.10
1405;DHT22;697;51.114;6.542;2024-03-08T04:59:25;6.00;83.30
1405;DHT22;697;51.114;6.542;2024-03-08T05:01:52;6.00;83.60
1405;DHT22;697;51.114;6.542;2024-03-08T05:04:19;5.90;84.00
1405;DHT22;697;51.114;6.542;2024-03-08T05:06:45;5.80;84.10
1405;DHT22;697;51.114;6.542;2024-03-08T05:09:12;5.80;84.30
1405;DHT22;697;51.114;6.542;2024-03-08T05:11:40;5.80;85.00
1405;DHT22;697;51.114;6.542;2024-03-08T05:14:09;5.70;84.90
1405;DHT22;697;51.114;6.542;2024-03-08T05:16:36;5.60;85.40
1405;DHT22;697;51.114;6.542;2024-03-08T05:19:03;5.60;85.20
1405;DHT22;697;51.114;6.542;2024-03-08T05:21:30;5.70;85.30
1405;DHT22;697;51.114;6.542;2024-03-08T05:23:56;5.70;85.10
1405;DHT22;697;51.114;6.542;2024-03-08T05:26:23;5.70;85.10
1405;DHT22;697;51.114;6.542;2024-03-08T05:28:50;5.70;85.10
1405;DHT22;697;51.114;6.542;2024-03-08T05:31:21;5.80;86.20
1405;DHT22;697;51.114;6.542;2024-03-08T05:33:49;5.90;87.40
1405;DHT22;697;51.114;6.542;2024-03-08T05:36:16;6.00;86.90
1405;DHT22;697;51.114;6.542;2024-03-08T05:38:43;6.00;85.60
1405;DHT22;697;51.114;6.542;2024-03-08T05:41:10;5.80;84.80
1405;DHT22;697;51.114;6.542;2024-03-08T05:43:37;5.70;85.30
1405;DHT22;697;51.114;6.542;2024-03-08T05:46:04;5.80;85.40
1405;DHT22;697;51.114;6.542;2024-03-08T05:48:32;5.80;85.00
1405;DHT22;697;51.114;6.542;2024-03-08T05:51:00;5.80;85.00
1405;DHT22;697;51.114;6.542;2024-03-08T05:53:27;5.80;84.80
1405;DHT22;697;51.114;6.542;2024-03-08T05:55:57;5.90;84.70
1405;DHT22;697;51.114;6.542;2024-03-08T05:58:24;5.80;84.60
1405;DHT22;697;51.114;6.542;2024-03-08T06:00:50;5.80;84.60
1405;DHT22;697;51.114;6.542;2024-03-08T06:03:17;5.80;84.70
1405;DHT22;697;51.114;6.542;2024-03-08T06:05:48;5.70;85.30
1405;DHT22;697;51.114;6.542;2024-03-08T06:08:15;5.70;85.90
1405;DHT22;697;51.114;6.542;2024-03-08T06:10:42;5.70;86.00
1405;DHT22;697;51.114;6.542;2024-03-08T06:13:09;5.70;85.80
1405;DHT22;697;51.114;6.542;2024-03-08T06:15:37;5.70;85.70
1405;DHT22;697;51.114;6.542;2024-03-08T06:18:04;5.80;85.70
1405;DHT22;697;51.114;6.542;2024-03-08T06:20:33;5.80;85.80
1405;DHT22;697;51.114;6.542;2024-03-08T06:23:01;5.70;86.00
1405;DHT22;697;51.114;6.542;2024-03-08T06:25:28;5.70;86.10
1405;DHT22;697;51.114;6.542;2024-03-08T06:27:55;5.70;86.20
1405;DHT22;697;51.114;6.542;2024-03-08T06:30:22;5.80;86.20
1405;DHT22;697;51.114;6.542;2024-03-08T06:32:48;5.80;86.20
1405;DHT22;697;51.114;6.542;2024-03-08T06:35:15;5.80;86.20
1405;DHT22;697;51.114;6.542;2024-03-08T06:37:42;5.80;86.20
1405;DHT22;697;51.114;6.542;2024-03-08T06:40:12;5.90;86.10
1405;DHT22;697;51.114;6.542;2024-03-08T06:42:40;5.90;85.80
1405;DHT22;697;51.114;6.542;2024-03-08T06:45:07;5.90;85.80
1405;DHT22;697;51.114;6.542;2024-03-08T06:47:35;6.00;85.90
1405;DHT22;697;51.114;6.542;2024-03-08T06:50:02;6.00;85.60
1405;DHT22;697;51.114;6.542;2024-03-08T06:52:31;6.00;85.80
1405;DHT22;697;51.114;6.542;2024-03-08T06:54:58;6.00;85.90
1405;DHT22;697;51.114;6.542;2024-03-08T06:57:28;6.00;85.90
1405;DHT22;697;51.114;6.542;2024-03-08T06:59:55;6.00;86.00
1405;DHT22;697;51.114;6.542;2024-03-08T07:02:22;6.00;85.90
1405;DHT22;697;51.114;6.542;2024-03-08T07:04:51;6.00;85.90
1405;DHT22;697;51.114;6.542;2024-03-08T07:07:18;6.10;86.10
1405;DHT22;697;51.114;6.542;2024-03-08T07:09:46;6.10;85.70
1405;DHT22;697;51.114;6.542;2024-03-08T07:12:15;6.10;85.60
1405;DHT22;697;51.114;6.542;2024-03-08T07:14:43;6.10;85.80
1405;DHT22;697;51.114;6.542;2024-03-08T07:17:11;6.10;86.00
1405;DHT22;697;51.114;6.542;2024-03-08T07:19:38;6.20;86.20
1405;DHT22;697;51.114;6.542;2024-03-08T07:22:05;6.20;86.30
1405;DHT22;697;51.114;6.542;2024-03-08T07:24:34;6.20;86.40
1405;DHT22;697;51.114;6.542;2024-03-08T07:27:16;6.20;86.40
1405;DHT22;697;51.114;6.542;2024-03-08T07:29:44;6.30;86.50
1405;DHT22;697;51.114;6.542;2024-03-08T07:32:11;6.30;86.60
1405;DHT22;697;51.114;6.542;2024-03-08T07:34:47;6.40;86.70
1405;DHT22;697;51.114;6.542;2024-03-08T07:37:14;6.40;86.70
1405;DHT22;697;51.114;6.542;2024-03-08T07:39:40;6.40;86.60
1405;DHT22;697;51.114;6.542;2024-03-08T07:42:07;6.50;86.70
1405;DHT22;697;51.114;6.542;2024-03-08T07:44:34;6.50;86.60
1405;DHT22;697;51.114;6.542;2024-03-08T07:47:02;6.60;86.40
1405;DHT22;697;51.114;6.542;2024-03-08T07:49:30;6.70;86.40
1405;DHT22;697;51.114;6.542;2024-03-08T07:51:57;6.70;86.20
1405;DHT22;697;51.114;6.542;2024-03-08T07:54:24;6.80;87.10
1405;DHT22;697;51.114;6.542;2024-03-08T07:56:52;6.90;86.20
1405;DHT22;697;51.114;6.542;2024-03-08T07:59:19;6.90;85.90
1405;DHT22;697;51.114;6.542;2024-03-08T08:01:46;7.00;85.70
1405;DHT22;697;51.114;6.542;2024-03-08T08:04:14;7.10;85.60
1405;DHT22;697;51.114;6.542;2024-03-08T08:06:43;7.20;85.30
1405;DHT22;697;51.114;6.542;2024-03-08T08:09:10;7.20;85.20
1405;DHT22;697;51.114;6.542;2024-03-08T08:11:40;7.30;84.50
1405;DHT22;697;51.114;6.542;2024-03-08T08:14:08;7.40;84.20
1405;DHT22;697;51.114;6.542;2024-03-08T08:16:36;7.40;83.80
1405;DHT22;697;51.114;6.542;2024-03-08T08:19:03;7.50;83.70
1405;DHT22;697;51.114;6.542;2024-03-08T08:21:34;7.60;83.60
1405;DHT22;697;51.114;6.542;2024-03-08T08:24:02;7.70;83.40
1405;DHT22;697;51.114;6.542;2024-03-08T08:26:29;7.70;83.40
1405;DHT22;697;51.114;6.542;2024-03-08T08:28:56;7.80;83.50
1405;DHT22;697;51.114;6.542;2024-03-08T08:31:23;7.90;83.00
1405;DHT22;697;51.114;6.542;2024-03-08T08:33:49;7.90;82.40
1405;DHT22;697;51.114;6.542;2024-03-08T08:36:19;8.00;82.20
1405;DHT22;697;51.114;6.542;2024-03-08T08:38:47;8.00;81.90
1405;DHT22;697;51.114;6.542;2024-03-08T08:41:14;8.10;81.80
1405;DHT22;697;51.114;6.542;2024-03-08T08:43:42;8.20;82.80
1405;DHT22;697;51.114;6.542;2024-03-08T08:46:10;8.20;82.00
1405;DHT22;697;51.114;6.542;2024-03-08T08:48:38;8.30;81.60
1405;DHT22;697;51.114;6.542;2024-03-08T08:51:06;8.30;81.60
1405;DHT22;697;51.114;6.542;2024-03-08T08:53:37;8.40;81.80
1405;DHT22;697;51.114;6.542;2024-03-08T08:56:07;8.40;81.60
1405;DHT22;697;51.114;6.542;2024-03-08T08:58:34;8.50;80.80
1405;DHT22;697;51.114;6.542;2024-03-08T09:01:01;8.60;80.50
1405;DHT22;697;51.114;6.542;2024-03-08T09:03:28;8.70;80.40
1405;DHT22;697;51.114;6.542;2024-03-08T09:05:55;8.70;79.20
1405;DHT22;697;51.114;6.542;2024-03-08T09:08:22;8.80;79.30
1405;DHT22;697;51.114;6.542;2024-03-08T09:10:50;8.80;79.20
1405;DHT22;697;51.114;6.542;2024-03-08T09:13:18;8.90;79.00
1405;DHT22;697;51.114;6.542;2024-03-08T09:15:45;8.90;78.80
1405;DHT22;697;51.114;6.542;2024-03-08T09:18:12;9.00;78.60
1405;DHT22;697;51.114;6.542;2024-03-08T09:20:38;9.10;78.40
1405;DHT22;697;51.114;6.542;2024-03-08T09:23:06;9.20;78.60
1405;DHT22;697;51.114;6.542;2024-03-08T09:25:34;9.30;77.90
1405;DHT22;697;51.114;6.542;2024-03-08T09:28:00;9.40;77.00
1405;DHT22;697;51.114;6.542;2024-03-08T09:30:29;9.40;75.40
1405;DHT22;697;51.114;6.542;2024-03-08T09:32:56;9.50;75.60
1405;DHT22;697;51.114;6.542;2024-03-08T09:35:23;9.50;74.70
1405;DHT22;697;51.114;6.542;2024-03-08T09:37:49;9.50;75.00
1405;DHT22;697;51.114;6.542;2024-03-08T09:40:17;9.70;74.80
1405;DHT22;697;51.114;6.542;2024-03-08T09:42:45;9.70;74.20
1405;DHT22;697;51.114;6.542;2024-03-08T09:45:12;9.80;74.00
1405;DHT22;697;51.114;6.542;2024-03-08T09:47:42;9.90;72.00
1405;DHT22;697;51.114;6.542;2024-03-08T09:50:10;10.00;69.70
1405;DHT22;697;51.114;6.542;2024-03-08T09:52:38;10.00;70.20
1405;DHT22;697;51.114;6.542;2024-03-08T09:55:06;10.00;70.90
1405;DHT22;697;51.114;6.542;2024-03-08T09:57:33;10.10;70.60
1405;DHT22;697;51.114;6.542;2024-03-08T10:00:02;10.20;71.40
1405;DHT22;697;51.114;6.542;2024-03-08T10:02:35;10.30;70.50
1405;DHT22;697;51.114;6.542;2024-03-08T10:05:03;10.50;70.30
1405;DHT22;697;51.114;6.542;2024-03-08T10:07:30;10.60;68.50
1405;DHT22;697;51.114;6.542;2024-03-08T10:09:58;10.80;68.60
1405;DHT22;697;51.114;6.542;2024-03-08T10:12:26;11.00;68.40
1405;DHT22;697;51.114;6.542;2024-03-08T10:14:55;11.20;68.30
1405;DHT22;697;51.114;6.542;2024-03-08T10:17:21;11.50;65.80
1405;DHT22;697;51.114;6.542;2024-03-08T10:19:50;11.70;64.10
1405;DHT22;697;51.114;6.542;2024-03-08T10:22:19;12.00;62.40
1405;DHT22;697;51.114;6.542;2024-03-08T10:24:46;12.30;61.60
1405;DHT22;697;51.114;6.542;2024-03-08T10:27:13;12.70;60.60
1405;DHT22;697;51.114;6.542;2024-03-08T10:29:39;13.00;59.30
1405;DHT22;697;51.114;6.542;2024-03-08T10:32:09;13.40;58.30
1405;DHT22;697;51.114;6.542;2024-03-08T10:34:37;13.80;57.60
1405;DHT22;697;51.114;6.542;2024-03-08T10:37:05;14.20;57.00
1405;DHT22;697;51.114;6.542;2024-03-08T10:39:36;14.70;54.20
1405;DHT22;697;51.114;6.542;2024-03-08T10:42:04;15.10;52.40
1405;DHT22;697;51.114;6.542;2024-03-08T10:44:47;15.30;50.90
1405;DHT22;697;51.114;6.542;2024-03-08T10:47:18;15.60;49.40
1405;DHT22;697;51.114;6.542;2024-03-08T10:49:51;15.80;48.30
1405;DHT22;697;51.114;6.542;2024-03-08T10:52:19;15.90;47.60
1405;DHT22;697;51.114;6.542;2024-03-08T10:54:48;16.30;47.50
1405;DHT22;697;51.114;6.542;2024-03-08T10:57:17;16.70;46.90
1405;DHT22;697;51.114;6.542;2024-03-08T10:59:47;17.00;45.10
1405;DHT22;697;51.114;6.542;2024-03-08T11:02:16;17.40;44.60
1405;DHT22;697;51.114;6.542;2024-03-08T11:04:48;17.80;43.50
1405;DHT22;697;51.114;6.542;2024-03-08T11:07:16;18.10;42.70
1405;DHT22;697;51.114;6.542;2024-03-08T11:09:48;18.40;41.30
1405;DHT22;697;51.114;6.542;2024-03-08T11:12:22;18.60;40.60
1405;DHT22;697;51.114;6.542;2024-03-08T11:14:51;18.80;39.90
1405;DHT22;697;51.114;6.542;2024-03-08T11:17:21;19.00;39.10
1405;DHT22;697;51.114;6.542;2024-03-08T11:19:48;19.30;39.00
1405;DHT22;697;51.114;6.542;2024-03-08T11:22:21;19.60;38.00
1405;DHT22;697;51.114;6.542;2024-03-08T11:24:51;19.80;36.50
1405;DHT22;697;51.114;6.542;2024-03-08T11:27:18;20.10;36.70
1405;DHT22;697;51.114;6.542;2024-03-08T11:29:59;20.30;35.30
1405;DHT22;697;51.114;6.542;2024-03-08T11:32:35;20.50;35.50
1405;DHT22;697;51.114;6.542;2024-03-08T11:35:06;20.50;34.90
1405;DHT22;697;51.114;6.542;2024-03-08T11:37:34;20.80;35.00
1405;DHT22;697;51.114;6.542;2024-03-08T11:40:12;20.90;33.50
1405;DHT22;697;51.114;6.542;2024-03-08T11:42:44;21.10;33.30
1405;DHT22;697;51.114;6.542;2024-03-08T11:45:12;21.30;32.50
1405;DHT22;697;51.114;6.542;2024-03-08T11:47:41;21.50;32.50
1405;DHT22;697;51.114;6.542;2024-03-08T11:50:10;21.70;32.40
1405;DHT22;697;51.114;6.542;2024-03-08T11:52:37;22.00;31.20
1405;DHT22;697;51.114;6.542;2024-03-08T11:55:07;22.30;30.80
1405;DHT22;697;51.114;6.542;2024-03-08T11:57:34;22.60;30.50
1405;DHT22;697;51.114;6.542;2024-03-08T12:00:01;22.90;30.00
1405;DHT22;697;51.114;6.542;2024-03-08T12:02:32;23.20;29.90
1405;DHT22;697;51.114;6.542;2024-03-08T12:05:01;23.50;29.60
1405;DHT22;697;51.114;6.542;2024-03-08T12:07:28;23.50;28.20
1405;DHT22;697;51.114;6.542;2024-03-08T12:10:19;23.30;28.50
1405;DHT22;697;51.114;6.542;2024-03-08T12:12:48;23.20;29.20
1405;DHT22;697;51.114;6.542;2024-03-08T12:15:17;22.80;28.60
1405;DHT22;697;51.114;6.542;2024-03-08T12:17:44;22.40;28.20
1405;DHT22;697;51.114;6.542;2024-03-08T12:20:15;22.20;29.90
1405;DHT22;697;51.114;6.542;2024-03-08T12:22:43;22.30;28.60
1405;DHT22;697;51.114;6.542;2024-03-08T12:25:11;22.60;29.20
1405;DHT22;697;51.114;6.542;2024-03-08T12:27:40;23.10;28.80
1405;DHT22;697;51.114;6.542;2024-03-08T12:30:19;23.40;28.30
1405;DHT22;697;51.114;6.542;2024-03-08T12:32:48;23.60;27.60
1405;DHT22;697;51.114;6.542;2024-03-08T12:35:15;23.40;27.00
1405;DHT22;697;51.114;6.542;2024-03-08T12:37:43;23.40;27.50
1405;DHT22;697;51.114;6.542;2024-03-08T12:40:10;23.50;28.30
1405;DHT22;697;51.114;6.542;2024-03-08T12:42:43;23.70;27.40
1405;DHT22;697;51.114;6.542;2024-03-08T12:45:13;23.30;27.20
1405;DHT22;697;51.114;6.542;2024-03-08T12:47:40;23.10;27.90
1405;DHT22;697;51.114;6.542;2024-03-08T12:50:08;22.80;27.50
1405;DHT22;697;51.114;6.542;2024-03-08T12:52:35;22.50;27.90
1405;DHT22;697;51.114;6.542;2024-03-08T12:55:02;22.50;28.40
1405;DHT22;697;51.114;6.542;2024-03-08T12:57:32;22.80;28.70
1405;DHT22;697;51.114;6.542;2024-03-08T13:00:02;23.10;27.70
1405;DHT22;697;51.114;6.542;2024-03-08T13:02:29;23.40;27.90
1405;DHT22;697;51.114;6.542;2024-03-08T13:04:57;23.60;27.60
1405;DHT22;697;51.114;6.542;2024-03-08T13:07:24;24.20;27.50
1405;DHT22;697;51.114;6.542;2024-03-08T13:09:52;24.70;27.00
1405;DHT22;697;51.114;6.542;2024-03-08T13:12:20;24.90;26.40
1405;DHT22;697;51.114;6.542;2024-03-08T13:14:47;25.20;26.00
1405;DHT22;697;51.114;6.542;2024-03-08T13:17:15;25.30;25.30
1405;DHT22;697;51.114;6.542;2024-03-08T13:19:43;25.10;25.30
1405;DHT22;697;51.114;6.542;2024-03-08T13:22:10;25.10;25.90
1405;DHT22;697;51.114;6.542;2024-03-08T13:24:39;25.40;26.10
1405;DHT22;697;51.114;6.542;2024-03-08T13:27:07;26.00;26.20
1405;DHT22;697;51.114;6.542;2024-03-08T13:29:45;26.70;25.60
1405;DHT22;697;51.114;6.542;2024-03-08T13:32:14;27.60;24.60
1405;DHT22;697;51.114;6.542;2024-03-08T13:34:41;28.20;23.80
1405;DHT22;697;51.114;6.542;2024-03-08T13:37:09;28.70;23.20
1405;DHT22;697;51.114;6.542;2024-03-08T13:39:37;29.20;23.40
1405;DHT22;697;51.114;6.542;2024-03-08T13:42:09;29.70;22.40
1405;DHT22;697;51.114;6.542;2024-03-08T13:44:39;30.20;22.30
1405;DHT22;697;51.114;6.542;2024-03-08T13:47:06;30.70;22.00
1405;DHT22;697;51.114;6.542;2024-03-08T13:49:34;30.90;20.90
1405;DHT22;697;51.114;6.542;2024-03-08T13:52:02;31.10;21.30
1405;DHT22;697;51.114;6.542;2024-03-08T13:54:29;31.30;20.70
1405;DHT22;697;51.114;6.542;2024-03-08T13:56:57;31.50;20.60
1405;DHT22;697;51.114;6.542;2024-03-08T13:59:24;31.60;20.40
1405;DHT22;697;51.114;6.542;2024-03-08T14:01:55;31.90;20.50
1405;DHT22;697;51.114;6.542;2024-03-08T14:04:22;32.10;19.80
1405;DHT22;697;51.114;6.542;2024-03-08T14:06:51;32.10;19.80
1405;DHT22;697;51.114;6.542;2024-03-08T14:09:22;32.10;19.90
1405;DHT22;697;51.114;6.542;2024-03-08T14:11:50;32.10;19.80
1405;DHT22;697;51.114;6.542;2024-03-08T14:14:19;32.10;19.60
1405;DHT22;697;51.114;6.542;2024-03-08T14:16:46;32.20;20.00
1405;DHT22;697;51.114;6.542;2024-03-08T14:19:13;32.30;19.40
1405;DHT22;697;51.114;6.542;2024-03-08T14:21:40;32.30;19.90
1405;DHT22;697;51.114;6.542;2024-03-08T14:24:09;32.20;19.40
1405;DHT22;697;51.114;6.542;2024-03-08T14:26:36;32.10;19.80
1405;DHT22;697;51.114;6.542;2024-03-08T14:29:04;32.00;19.90
1405;DHT22;697;51.114;6.542;2024-03-08T14:31:31;31.80;20.00
1405;DHT22;697;51.114;6.542;2024-03-08T14:33:57;31.80;20.10
1405;DHT22;697;51.114;6.542;2024-03-08T14:36:24;31.50;19.90
1405;DHT22;697;51.114;6.542;2024-03-08T14:38:52;31.40;20.40
1405;DHT22;697;51.114;6.542;2024-03-08T14:41:20;31.30;20.00
1405;DHT22;697;51.114;6.542;2024-03-08T14:43:48;31.10;20.40
1405;DHT22;697;51.114;6.542;2024-03-08T14:46:15;31.00;20.30
1405;DHT22;697;51.114;6.542;2024-03-08T14:48:42;30.80;20.40
1405;DHT22;697;51.114;6.542;2024-03-08T14:51:09;30.50;20.40
1405;DHT22;697;51.114;6.542;2024-03-08T14:53:40;30.40;20.60
1405;DHT22;697;51.114;6.542;2024-03-08T14:56:07;30.20;20.80
1405;DHT22;697;51.114;6.542;2024-03-08T14:58:36;30.00;20.80
1405;DHT22;697;51.114;6.542;2024-03-08T15:01:04;29.70;21.00
1405;DHT22;697;51.114;6.542;2024-03-08T15:03:35;29.60;21.30
1405;DHT22;697;51.114;6.542;2024-03-08T15:06:03;29.60;21.20
1405;DHT22;697;51.114;6.542;2024-03-08T15:08:34;29.20;21.80
1405;DHT22;697;51.114;6.542;2024-03-08T15:11:01;29.20;21.90
1405;DHT22;697;51.114;6.542;2024-03-08T15:13:27;29.20;21.80
1405;DHT22;697;51.114;6.542;2024-03-08T15:16:06;28.90;21.70
1405;DHT22;697;51.114;6.542;2024-03-08T15:18:34;28.60;22.20
1405;DHT22;697;51.114;6.542;2024-03-08T15:21:03;28.50;22.60
1405;DHT22;697;51.114;6.542;2024-03-08T15:23:33;28.50;22.10
1405;DHT22;697;51.114;6.542;2024-03-08T15:26:00;28.50;22.60
1405;DHT22;697;51.114;6.542;2024-03-08T15:28:27;28.50;22.70
1405;DHT22;697;51.114;6.542;2024-03-08T15:31:01;28.50;22.60
1405;DHT22;697;51.114;6.542;2024-03-08T15:33:33;28.30;23.00
1405;DHT22;697;51.114;6.542;2024-03-08T15:36:05;28.30;23.40
1405;DHT22;697;51.114;6.542;2024-03-08T15:38:35;28.10;23.00
1405;DHT22;697;51.114;6.542;2024-03-08T15:41:02;27.90;23.10
1405;DHT22;697;51.114;6.542;2024-03-08T15:43:32;27.70;23.50
1405;DHT22;697;51.114;6.542;2024-03-08T15:46:00;27.60;23.70
1405;DHT22;697;51.114;6.542;2024-03-08T15:48:30;27.40;23.70
1405;DHT22;697;51.114;6.542;2024-03-08T15:50:59;27.10;23.90
1405;DHT22;697;51.114;6.542;2024-03-08T15:53:28;26.90;24.40
1405;DHT22;697;51.114;6.542;2024-03-08T15:55:56;26.60;24.60
1405;DHT22;697;51.114;6.542;2024-03-08T15:58:23;26.30;24.30
1405;DHT22;697;51.114;6.542;2024-03-08T16:00:50;25.90;25.00
1405;DHT22;697;51.114;6.542;2024-03-08T16:03:19;25.60;25.40
1405;DHT22;697;51.114;6.542;2024-03-08T16:05:46;25.30;25.80
1405;DHT22;697;51.114;6.542;2024-03-08T16:08:16;25.00;25.90
1405;DHT22;697;51.114;6.542;2024-03-08T16:10:43;24.70;26.30
1405;DHT22;697;51.114;6.542;2024-03-08T16:13:14;24.30;26.80
1405;DHT22;697;51.114;6.542;2024-03-08T16:15:42;24.00;27.10
1405;DHT22;697;51.114;6.542;2024-03-08T16:18:10;23.70;27.50
1405;DHT22;697;51.114;6.542;2024-03-08T16:20:37;23.40;28.10
1405;DHT22;697;51.114;6.542;2024-03-08T16:23:04;23.20;28.30
1405;DHT22;697;51.114;6.542;2024-03-08T16:25:32;23.00;28.70
1405;DHT22;697;51.114;6.542;2024-03-08T16:28:00;22.80;28.80
1405;DHT22;697;51.114;6.542;2024-03-08T16:30:26;22.40;28.80
1405;DHT22;697;51.114;6.542;2024-03-08T16:32:58;22.00;29.30